createdAt,value
2018-03-02T00:01:05.183Z,98088
2018-03-02T00:03:09.836Z,98091
2018-03-02T00:05:13.753Z,98091
2018-03-02T00:07:16.929Z,98075
2018-03-02T00:09:21.034Z,98082
2018-03-02T00:11:24.195Z,98074
2018-03-02T00:13:27.378Z,98068
2018-03-02T00:15:30.576Z,98076
2018-03-02T00:17:33.734Z,98056
2018-03-02T00:19:37.658Z,98069
2018-03-02T00:21:43.456Z,98067
2018-03-02T00:23:46.751Z,98073
2018-03-02T00:25:50.697Z,98055
2018-03-02T00:27:54.812Z,98056
2018-03-02T00:29:57.987Z,98059
2018-03-02T00:32:02.433Z,98057
2018-03-02T00:34:06.356Z,98051
2018-03-02T00:36:09.547Z,98050
2018-03-02T00:38:12.727Z,98051
2018-03-02T00:40:15.911Z,98037
2018-03-02T00:42:19.100Z,98030
2018-03-02T00:44:23.030Z,98043
2018-03-02T00:46:26.192Z,98034
2018-03-02T00:48:29.398Z,98022
2018-03-02T00:50:32.575Z,98015
2018-03-02T00:52:35.728Z,98033
2018-03-02T00:54:38.913Z,98021
2018-03-02T00:56:42.345Z,98024
2018-03-02T00:58:45.499Z,98014
2018-03-02T01:00:48.696Z,98012
2018-03-02T01:02:52.643Z,98014
2018-03-02T01:04:55.822Z,98004
2018-03-02T01:06:59.748Z,98006
2018-03-02T01:09:03.671Z,98003
2018-03-02T01:11:07.919Z,98005
2018-03-02T01:13:11.832Z,98003
2018-03-02T01:15:15.743Z,98004
2018-03-02T01:17:18.925Z,97997
2018-03-02T01:19:23.802Z,98002
2018-03-02T01:21:26.984Z,97999
2018-03-02T01:23:30.173Z,97994
2018-03-02T01:25:33.326Z,97997
2018-03-02T01:27:37.264Z,97999
2018-03-02T01:29:41.209Z,97999
2018-03-02T01:31:44.356Z,97986
2018-03-02T01:33:47.509Z,97987
2018-03-02T01:35:51.742Z,97980
2018-03-02T01:37:55.660Z,97984
2018-03-02T01:39:59.608Z,97985
2018-03-02T01:42:03.795Z,97985
2018-03-02T01:44:06.952Z,97983
2018-03-02T01:46:10.172Z,97985
2018-03-02T01:48:13.358Z,97969
2018-03-02T01:50:16.522Z,97976
2018-03-02T01:52:19.704Z,97973
2018-03-02T01:54:23.990Z,97977
2018-03-02T01:56:27.941Z,97979
2018-03-02T01:58:31.145Z,97968
2018-03-02T02:00:34.302Z,97958
2018-03-02T02:02:37.471Z,97972
2018-03-02T02:04:40.644Z,97955
2018-03-02T02:06:44.417Z,97952
2018-03-02T02:08:47.572Z,97950
2018-03-02T02:10:51.515Z,97955
2018-03-02T02:12:54.687Z,97958
2018-03-02T02:14:58.608Z,97946
2018-03-02T02:17:01.756Z,97942
2018-03-02T02:19:04.939Z,97944
2018-03-02T02:21:08.862Z,97931
2018-03-02T02:23:12.809Z,97940
2018-03-02T02:25:15.971Z,97936
2018-03-02T02:27:19.931Z,97939
2018-03-02T02:29:25.000Z,97937
2018-03-02T02:31:28.157Z,97927
2018-03-02T02:33:31.332Z,97935
2018-03-02T02:35:35.652Z,97925
2018-03-02T02:37:40.313Z,97917
2018-03-02T02:39:45.656Z,97926
2018-03-02T02:41:50.466Z,97921
2018-03-02T02:43:55.964Z,97915
2018-03-02T02:45:59.304Z,97920
2018-03-02T02:48:02.485Z,97919
2018-03-02T02:50:05.983Z,97918
2018-03-02T02:52:09.136Z,97918
2018-03-02T02:54:12.316Z,97916
2018-03-02T02:56:15.491Z,97927
2018-03-02T02:58:19.436Z,97916
2018-03-02T03:00:22.873Z,97923
2018-03-02T03:02:26.040Z,97910
2018-03-02T03:04:29.985Z,97924
2018-03-02T03:06:33.185Z,97916
2018-03-02T03:08:36.344Z,97918
2018-03-02T03:10:39.504Z,97921
2018-03-02T03:12:42.691Z,97925
2018-03-02T03:14:47.152Z,97923
2018-03-02T03:16:50.374Z,97927
2018-03-02T03:18:53.548Z,97920
2018-03-02T03:20:57.478Z,97921
2018-03-02T03:23:01.424Z,97910
2018-03-02T03:25:04.586Z,97905
2018-03-02T03:27:07.789Z,97899
2018-03-02T03:29:10.959Z,97905
2018-03-02T03:31:14.127Z,97900
2018-03-02T03:33:18.084Z,97897
2018-03-02T03:35:21.264Z,97910
2018-03-02T03:37:25.180Z,97897
2018-03-02T03:39:29.145Z,97880
2018-03-02T03:41:32.300Z,97890
2018-03-02T03:43:36.279Z,97885
2018-03-02T03:45:39.446Z,97877
2018-03-02T03:47:43.360Z,97881
2018-03-02T03:49:47.370Z,97885
2018-03-02T03:51:50.772Z,97880
2018-03-02T03:53:53.977Z,97890
2018-03-02T03:55:57.136Z,97878
2018-03-02T03:58:01.061Z,97875
2018-03-02T04:00:05.304Z,97886
2018-03-02T04:02:08.460Z,97886
2018-03-02T04:04:11.620Z,97884
2018-03-02T04:06:14.800Z,97873
2018-03-02T04:08:18.725Z,97876
2018-03-02T04:10:22.652Z,97877
2018-03-02T04:12:26.605Z,97880
2018-03-02T04:14:29.755Z,97878
2018-03-02T04:16:32.907Z,97873
2018-03-02T04:18:36.864Z,97865
2018-03-02T04:20:40.017Z,97857
2018-03-02T04:22:43.192Z,97851
2018-03-02T04:24:46.402Z,97848
2018-03-02T04:26:49.554Z,97844
2018-03-02T04:28:53.477Z,97844
2018-03-02T04:30:57.424Z,97836
2018-03-02T04:33:00.609Z,97837
2018-03-02T04:35:04.524Z,97834
2018-03-02T04:37:11.910Z,97831
2018-03-02T04:39:15.971Z,97829
2018-03-02T04:41:19.884Z,97828
2018-03-02T04:43:23.064Z,97824
2018-03-02T04:45:26.216Z,97827
2018-03-02T04:47:30.163Z,97818
2018-03-02T04:49:34.701Z,97827
2018-03-02T04:51:37.963Z,97819
2018-03-02T04:53:41.151Z,97813
2018-03-02T04:55:45.323Z,97814
2018-03-02T04:57:49.194Z,97820
2018-03-02T04:59:52.376Z,97808
2018-03-02T05:01:56.490Z,97810
2018-03-02T05:04:00.965Z,97805
2018-03-02T05:06:05.886Z,97802
2018-03-02T05:08:11.821Z,97788
2018-03-02T05:10:16.451Z,97788
2018-03-02T05:12:20.452Z,97804
2018-03-02T05:14:24.434Z,97794
2018-03-02T05:16:30.032Z,97793
2018-03-02T05:18:35.807Z,97793
2018-03-02T05:20:39.176Z,97791
2018-03-02T05:22:43.126Z,97781
2018-03-02T05:24:47.045Z,97788
2018-03-02T05:26:52.148Z,97769
2018-03-02T05:28:56.178Z,97779
2018-03-02T05:31:01.190Z,97788
2018-03-02T05:33:05.800Z,97779
2018-03-02T05:35:10.708Z,97771
2018-03-02T05:37:14.307Z,97775
2018-03-02T05:39:17.705Z,97775
2018-03-02T05:41:20.847Z,97783
2018-03-02T05:43:24.960Z,97786
2018-03-02T05:45:30.015Z,97781
2018-03-02T05:47:33.294Z,97779
2018-03-02T05:49:36.449Z,97769
2018-03-02T05:51:39.629Z,97772
2018-03-02T05:53:42.814Z,97766
2018-03-02T05:55:45.994Z,97773
2018-03-02T05:57:50.613Z,97762
2018-03-02T05:59:55.640Z,97765
2018-03-02T06:02:00.942Z,97754
2018-03-02T06:04:06.223Z,97754
2018-03-02T06:06:11.350Z,97757
2018-03-02T06:08:16.205Z,97758
2018-03-02T06:10:21.320Z,97767
2018-03-02T06:12:24.988Z,97760
2018-03-02T06:14:29.792Z,97756
2018-03-02T06:16:34.163Z,97759
2018-03-02T06:18:38.513Z,97756
2018-03-02T06:20:41.669Z,97761
2018-03-02T06:22:46.951Z,97744
2018-03-02T06:24:50.539Z,97752
2018-03-02T06:26:53.732Z,97741
2018-03-02T06:28:59.072Z,97745
2018-03-02T06:31:04.114Z,97737
2018-03-02T06:33:08.338Z,97742
2018-03-02T06:35:13.739Z,97739
2018-03-02T06:37:17.029Z,97734
2018-03-02T06:39:20.225Z,97733
2018-03-02T06:41:23.405Z,97724
2018-03-02T06:43:28.696Z,97722
2018-03-02T06:45:32.556Z,97728
2018-03-02T06:47:36.630Z,97723
2018-03-02T06:49:41.869Z,97728
2018-03-02T06:51:47.200Z,97725
2018-03-02T06:53:54.028Z,97718
2018-03-02T06:55:57.301Z,97730
2018-03-02T06:58:00.469Z,97713
2018-03-02T07:00:03.665Z,97712
2018-03-02T07:02:06.839Z,97721
2018-03-02T07:04:10.769Z,97715
2018-03-02T07:06:14.720Z,97703
2018-03-02T07:08:19.086Z,97725
2018-03-02T07:10:22.252Z,97725
2018-03-02T07:12:25.436Z,97720
2018-03-02T07:14:29.394Z,97713
2018-03-02T07:16:33.809Z,97718
2018-03-02T07:18:37.762Z,97706
2018-03-02T07:20:40.939Z,97698
2018-03-02T07:22:44.856Z,97723
2018-03-02T07:24:48.045Z,97717
2018-03-02T07:26:53.747Z,97706
2018-03-02T07:28:56.977Z,97702
2018-03-02T07:31:00.833Z,97694
2018-03-02T07:33:04.795Z,97710
2018-03-02T07:35:08.726Z,97709
2018-03-02T07:37:12.674Z,97706
2018-03-02T07:39:15.831Z,97695
2018-03-02T07:41:19.091Z,97702
2018-03-02T07:43:22.280Z,97696
2018-03-02T07:45:25.464Z,97701
2018-03-02T07:47:28.615Z,97693
2018-03-02T07:49:31.806Z,97690
2018-03-02T07:51:35.004Z,97680
2018-03-02T07:53:38.934Z,97686
2018-03-02T07:55:42.106Z,97674
2018-03-02T07:57:46.794Z,97664
2018-03-02T07:59:50.732Z,97678
2018-03-02T08:01:53.918Z,97685
2018-03-02T08:03:58.017Z,97681
2018-03-02T08:06:01.204Z,97687
2018-03-02T08:08:04.392Z,97675
2018-03-02T08:10:07.582Z,97669
2018-03-02T08:12:10.736Z,97659
2018-03-02T08:14:13.916Z,97669
2018-03-02T08:16:19.016Z,97668
2018-03-02T08:18:22.164Z,97672
2018-03-02T08:20:25.387Z,97664
2018-03-02T08:22:28.638Z,97665
2018-03-02T08:24:32.568Z,97652
2018-03-02T08:26:35.752Z,97647
2018-03-02T08:28:38.941Z,97653
2018-03-02T08:30:42.105Z,97643
2018-03-02T08:32:46.029Z,97649
2018-03-02T08:34:50.254Z,97653
2018-03-02T08:36:54.204Z,97643
2018-03-02T08:38:57.357Z,97647
2018-03-02T08:41:00.520Z,97646
2018-03-02T08:43:03.685Z,97636
2018-03-02T08:45:06.945Z,97635
2018-03-02T08:47:10.118Z,97634
2018-03-02T08:49:14.058Z,97637
2018-03-02T08:51:17.260Z,97632
2018-03-02T08:53:21.209Z,97631
2018-03-02T08:55:24.358Z,97621
2018-03-02T08:57:27.543Z,97625
2018-03-02T08:59:30.684Z,97635
2018-03-02T09:01:34.594Z,97629
2018-03-02T09:03:37.785Z,97624
2018-03-02T09:05:40.936Z,97630
2018-03-02T09:07:44.852Z,97635
2018-03-02T09:09:48.433Z,97622
2018-03-02T09:11:51.640Z,97625
2018-03-02T09:13:54.790Z,97624
2018-03-02T09:15:58.704Z,97624
2018-03-02T09:18:03.380Z,97620
2018-03-02T09:20:06.563Z,97621
2018-03-02T09:22:09.707Z,97623
2018-03-02T09:24:13.882Z,97613
2018-03-02T09:26:17.048Z,97614
2018-03-02T09:28:20.669Z,97609
2018-03-02T09:30:24.168Z,97601
2018-03-02T09:32:27.357Z,97594
2018-03-02T09:34:31.277Z,97599
2018-03-02T09:36:34.432Z,97604
2018-03-02T09:38:37.606Z,97611
2018-03-02T09:40:42.768Z,97607
2018-03-02T09:42:45.948Z,97606
2018-03-02T09:44:49.140Z,97608
2018-03-02T09:46:52.600Z,97604
2018-03-02T09:48:55.744Z,97600
2018-03-02T09:50:58.888Z,97590
2018-03-02T09:53:02.073Z,97599
2018-03-02T09:55:05.221Z,97603
2018-03-02T09:57:09.137Z,97580
2018-03-02T09:59:13.088Z,97585
2018-03-02T10:01:17.299Z,97584
2018-03-02T10:03:22.343Z,97586
2018-03-02T10:05:26.289Z,97580
2018-03-02T10:07:29.449Z,97583
2018-03-02T10:09:32.605Z,97591
2018-03-02T10:11:35.823Z,97584
2018-03-02T10:13:39.732Z,97580
2018-03-02T10:15:43.661Z,97585
2018-03-02T10:17:46.841Z,97591
2018-03-02T10:19:50.764Z,97593
2018-03-02T10:21:53.940Z,97588
2018-03-02T10:23:57.115Z,97601
2018-03-02T10:26:00.297Z,97605
2018-03-02T10:28:04.238Z,97603
2018-03-02T10:30:07.391Z,97600
2018-03-02T10:32:10.570Z,97612
2018-03-02T10:34:16.402Z,97605
2018-03-02T10:36:19.665Z,97602
2018-03-02T10:38:23.717Z,97595
2018-03-02T10:40:26.896Z,97596
2018-03-02T10:42:30.072Z,97604
2018-03-02T10:44:34.667Z,97599
2018-03-02T10:46:37.862Z,97605
2018-03-02T10:48:41.215Z,97613
2018-03-02T10:50:45.165Z,97607
2018-03-02T10:52:48.332Z,97609
2018-03-02T10:54:55.490Z,97606
2018-03-02T10:57:03.312Z,97601
2018-03-02T10:59:08.543Z,97601
2018-03-02T11:01:12.702Z,97604
2018-03-02T11:03:21.468Z,97614
2018-03-02T11:05:32.869Z,97607
2018-03-02T11:07:36.049Z,97601
2018-03-02T11:09:39.204Z,97600
2018-03-02T11:11:43.120Z,97597
2018-03-02T11:13:47.133Z,97606
2018-03-02T11:15:51.053Z,97595
2018-03-02T11:17:54.217Z,97611
2018-03-02T11:19:57.400Z,97597
2018-03-02T11:22:01.313Z,97593
2018-03-02T11:24:05.259Z,97586
2018-03-02T11:26:10.290Z,97586
2018-03-02T11:28:14.232Z,97591
2018-03-02T11:30:18.165Z,97574
2018-03-02T11:32:21.320Z,97577
2018-03-02T11:34:24.508Z,97590
2018-03-02T11:36:27.701Z,97581
2018-03-02T11:38:30.845Z,97583
2018-03-02T11:40:34.246Z,97591
2018-03-02T11:42:37.466Z,97594
2018-03-02T11:44:40.635Z,97593
2018-03-02T11:46:43.810Z,97597
2018-03-02T11:48:47.740Z,97579
2018-03-02T11:50:51.610Z,97583
2018-03-02T11:52:55.081Z,97586
2018-03-02T11:54:58.584Z,97578
2018-03-02T11:57:02.522Z,97578
2018-03-02T11:59:06.497Z,97574
2018-03-02T12:01:09.795Z,97566
2018-03-02T12:03:13.173Z,97567
2018-03-02T12:05:16.328Z,97560
2018-03-02T12:07:19.745Z,97566
2018-03-02T12:09:22.917Z,97574
2018-03-02T12:11:26.758Z,97574
2018-03-02T12:13:30.022Z,97578
2018-03-02T12:15:33.985Z,97576
2018-03-02T12:17:37.155Z,97576
2018-03-02T12:19:41.202Z,97574
2018-03-02T12:21:44.380Z,97566
2018-03-02T12:23:48.325Z,97563
2018-03-02T12:25:52.617Z,97563
2018-03-02T12:27:55.797Z,97574
2018-03-02T12:29:58.964Z,97575
2018-03-02T12:32:02.112Z,97563
2018-03-02T12:34:05.294Z,97576
2018-03-02T12:36:09.477Z,97570
2018-03-02T12:38:12.649Z,97558
2018-03-02T12:40:15.940Z,97569
2018-03-02T12:42:19.856Z,97574
2018-03-02T12:44:23.841Z,97571
2018-03-02T12:46:27.003Z,97572
2018-03-02T12:48:30.923Z,97581
2018-03-02T12:50:34.865Z,97569
2018-03-02T12:52:38.036Z,97581
2018-03-02T12:54:41.226Z,97579
2018-03-02T12:56:44.413Z,97590
2018-03-02T12:58:47.742Z,97585
2018-03-02T13:00:51.108Z,97585
2018-03-02T13:02:54.268Z,97586
2018-03-02T13:04:57.545Z,97577
2018-03-02T13:07:00.880Z,97595
2018-03-02T13:09:04.061Z,97583
2018-03-02T13:11:07.216Z,97580
2018-03-02T13:13:10.459Z,97590
2018-03-02T13:15:13.616Z,97589
2018-03-02T13:17:17.353Z,97571
2018-03-02T13:19:20.804Z,97562
2018-03-02T13:21:23.981Z,97557
2018-03-02T13:23:27.417Z,97568
2018-03-02T13:25:30.728Z,97570
2018-03-02T13:27:52.152Z,97563
2018-03-02T13:29:55.348Z,97556
2018-03-02T13:31:59.337Z,97556
2018-03-02T13:34:20.601Z,97562
2018-03-02T13:36:25.211Z,97559
2018-03-02T13:38:28.457Z,97551
2018-03-02T13:43:21.745Z,97558
2018-03-02T13:45:24.978Z,97549
2018-03-02T13:50:21.235Z,97553
2018-03-02T13:52:24.379Z,97556
2018-03-02T13:54:27.573Z,97558
2018-03-02T13:59:11.825Z,97570
2018-03-02T14:01:14.976Z,97567
2018-03-02T14:03:37.228Z,97565
2018-03-02T14:05:41.840Z,97560
2018-03-02T14:07:45.991Z,97555
2018-03-02T14:09:49.580Z,97551
2018-03-02T14:11:53.714Z,97547
2018-03-02T14:13:57.717Z,97557
2018-03-02T14:16:00.899Z,97542
2018-03-02T14:18:04.856Z,97536
2018-03-02T14:20:08.799Z,97538
2018-03-02T14:22:11.944Z,97543
2018-03-02T14:24:15.113Z,97551
2018-03-02T14:26:20.799Z,97548
2018-03-02T14:28:25.980Z,97541
2018-03-02T14:30:29.228Z,97536
2018-03-02T14:32:32.919Z,97536
2018-03-02T14:34:37.551Z,97545
2018-03-02T14:36:40.797Z,97534
2018-03-02T14:38:43.957Z,97541
2018-03-02T14:40:47.149Z,97545
2018-03-02T14:42:50.348Z,97538
2018-03-02T14:44:53.505Z,97539
2018-03-02T14:46:57.417Z,97544
2018-03-02T14:49:00.767Z,97536
2018-03-02T14:51:04.012Z,97531
2018-03-02T14:53:07.222Z,97551
2018-03-02T14:55:10.436Z,97534
2018-03-02T14:57:13.682Z,97535
2018-03-02T14:59:16.849Z,97528
2018-03-02T15:01:21.628Z,97541
2018-03-02T15:03:25.634Z,97535
2018-03-02T15:05:29.752Z,97557
2018-03-02T15:07:33.162Z,97531
2018-03-02T15:09:36.317Z,97543
2018-03-02T15:11:39.506Z,97544
2018-03-02T15:13:43.452Z,97556
2018-03-02T15:15:46.625Z,97557
2018-03-02T15:17:49.836Z,97545
2018-03-02T15:19:52.982Z,97552
2018-03-02T15:21:56.358Z,97553
2018-03-02T15:23:59.545Z,97564
2018-03-02T15:26:02.761Z,97557
2018-03-02T15:28:06.691Z,97557
2018-03-02T15:30:09.844Z,97573
2018-03-02T15:32:13.014Z,97566
2018-03-02T15:34:16.170Z,97554
2018-03-02T15:36:19.319Z,97549
2018-03-02T15:38:22.492Z,97541
2018-03-02T15:40:25.984Z,97536
2018-03-02T15:42:29.154Z,97537
2018-03-02T15:44:32.313Z,97539
2018-03-02T15:46:35.585Z,97535
2018-03-02T15:48:38.788Z,97539
2018-03-02T15:50:42.035Z,97537
2018-03-02T15:52:45.253Z,97544
2018-03-02T15:54:48.414Z,97547
2018-03-02T15:56:53.018Z,97536
2018-03-02T15:58:56.244Z,97539
2018-03-02T16:00:59.413Z,97545
2018-03-02T16:03:02.569Z,97540
2018-03-02T16:05:05.755Z,97550
2018-03-02T16:07:08.928Z,97554
2018-03-02T16:09:12.225Z,97562
2018-03-02T16:11:15.401Z,97563
2018-03-02T16:13:18.858Z,97555
2018-03-02T16:15:22.795Z,97560
2018-03-02T16:17:25.942Z,97562
2018-03-02T16:19:29.120Z,97564
2018-03-02T16:21:32.295Z,97569
2018-03-02T16:23:36.200Z,97566
2018-03-02T16:25:39.376Z,97563
2018-03-02T16:27:42.521Z,97564
2018-03-02T16:29:46.440Z,97580
2018-03-02T16:31:49.620Z,97588
2018-03-02T16:33:52.817Z,97599
2018-03-02T16:35:55.994Z,97595
2018-03-02T16:37:59.149Z,97600
2018-03-02T16:40:02.303Z,97602
2018-03-02T16:42:06.249Z,97598
2018-03-02T16:44:09.402Z,97597
2018-03-02T16:46:12.577Z,97600
2018-03-02T16:48:15.749Z,97604
2018-03-02T16:50:19.664Z,97608
2018-03-02T16:52:23.594Z,97608
2018-03-02T16:54:27.606Z,97616
2018-03-02T16:56:31.550Z,97624
2018-03-02T16:58:35.500Z,97613
2018-03-02T17:00:38.672Z,97629
2018-03-02T17:02:42.625Z,97631
2018-03-02T17:04:45.793Z,97623
2018-03-02T17:06:49.144Z,97637
2018-03-02T17:08:52.318Z,97643
2018-03-02T17:10:55.497Z,97646
2018-03-02T17:12:58.649Z,97648
2018-03-02T17:15:02.563Z,97641
2018-03-02T17:17:07.629Z,97649
2018-03-02T17:19:11.556Z,97647
2018-03-02T17:21:15.504Z,97650
2018-03-02T17:23:18.648Z,97657
2018-03-02T17:25:21.788Z,97656
2018-03-02T17:27:25.989Z,97657
2018-03-02T17:29:29.996Z,97652
2018-03-02T17:31:33.173Z,97656
2018-03-02T17:33:36.344Z,97661
2018-03-02T17:35:39.521Z,97660
2018-03-02T17:37:42.752Z,97661
2018-03-02T17:39:45.906Z,97669
2018-03-02T17:41:49.057Z,97670
2018-03-02T17:43:52.236Z,97673
2018-03-02T17:45:55.380Z,97677
2018-03-02T17:47:58.525Z,97679
2018-03-02T17:50:01.702Z,97698
2018-03-02T17:52:04.880Z,97682
2018-03-02T17:54:08.211Z,97677
2018-03-02T17:56:11.356Z,97680
2018-03-02T17:58:15.277Z,97686
2018-03-02T18:00:19.224Z,97684
2018-03-02T18:02:22.364Z,97683
2018-03-02T18:04:25.534Z,97685
2018-03-02T18:06:28.710Z,97688
2018-03-02T18:08:32.248Z,97682
2018-03-02T18:10:36.191Z,97691
2018-03-02T18:12:39.483Z,97694
2018-03-02T18:14:43.397Z,97685
2018-03-02T18:16:47.347Z,97695
2018-03-02T18:18:50.712Z,97696
2018-03-02T18:20:54.381Z,97698
2018-03-02T18:22:57.609Z,97704
2018-03-02T18:25:00.780Z,97703
2018-03-02T18:27:05.121Z,97705
2018-03-02T18:29:09.311Z,97699
2018-03-02T18:31:12.511Z,97704
2018-03-02T18:33:15.688Z,97704
2018-03-02T18:35:18.885Z,97705
2018-03-02T18:37:22.028Z,97713
2018-03-02T18:39:25.230Z,97711
2018-03-02T18:41:30.254Z,97714
2018-03-02T18:43:34.042Z,97711
2018-03-02T18:45:38.002Z,97711
2018-03-02T18:47:41.440Z,97713
2018-03-02T18:49:44.645Z,97714
2018-03-02T18:51:48.124Z,97721
2018-03-02T18:53:51.433Z,97715
2018-03-02T18:55:55.378Z,97707
2018-03-02T18:57:58.977Z,97706
2018-03-02T19:00:02.932Z,97704
2018-03-02T19:02:06.106Z,97711
2018-03-02T19:04:11.161Z,97719
2018-03-02T19:06:15.064Z,97714
2018-03-02T19:08:18.246Z,97715
2018-03-02T19:10:21.399Z,97720
2018-03-02T19:12:25.341Z,97716
2018-03-02T19:14:28.706Z,97723
2018-03-02T19:16:31.903Z,97714
2018-03-02T19:18:36.399Z,97709
2018-03-02T19:20:39.597Z,97712
2018-03-02T19:22:43.756Z,97716
2018-03-02T19:24:46.990Z,97711
2018-03-02T19:26:51.251Z,97715
2018-03-02T19:28:54.429Z,97704
2018-03-02T19:30:57.572Z,97711
2018-03-02T19:33:01.480Z,97711
2018-03-02T19:35:04.681Z,97706
2018-03-02T19:37:08.643Z,97708
2018-03-02T19:39:11.905Z,97708
2018-03-02T19:41:15.055Z,97717
2018-03-02T19:43:19.158Z,97726
2018-03-02T19:45:23.210Z,97721
2018-03-02T19:47:27.158Z,97714
2018-03-02T19:49:30.306Z,97726
2018-03-02T19:51:33.485Z,97729
2018-03-02T19:53:36.631Z,97725
2018-03-02T19:55:39.809Z,97724
2018-03-02T19:57:43.150Z,97745
2018-03-02T19:59:46.299Z,97728
2018-03-02T20:01:50.502Z,97746
2018-03-02T20:03:53.734Z,97735
2018-03-02T20:05:57.671Z,97733
2018-03-02T20:08:00.854Z,97745
2018-03-02T20:10:04.789Z,97736
2018-03-02T20:12:08.729Z,97738
2018-03-02T20:14:13.683Z,97737
2018-03-02T20:16:18.422Z,97740
2018-03-02T20:18:21.562Z,97739
2018-03-02T20:20:25.260Z,97729
2018-03-02T20:22:28.463Z,97744
2018-03-02T20:24:31.689Z,97743
2018-03-02T20:26:35.731Z,97743
2018-03-02T20:28:39.020Z,97735
2018-03-02T20:30:42.202Z,97747
2018-03-02T20:32:45.611Z,97737
2018-03-02T20:34:49.611Z,97752
2018-03-02T20:36:54.383Z,97742
2018-03-02T20:38:57.546Z,97738
2018-03-02T20:41:00.719Z,97746
2018-03-02T20:43:03.893Z,97732
2018-03-02T20:45:07.037Z,97734
2018-03-02T20:47:10.220Z,97741
2018-03-02T20:49:13.858Z,97730
2018-03-02T20:51:17.025Z,97736
2018-03-02T20:53:20.209Z,97747
2018-03-02T20:55:23.348Z,97744
2018-03-02T20:57:27.282Z,97745
2018-03-02T20:59:31.233Z,97744
2018-03-02T21:01:34.383Z,97748
2018-03-02T21:03:37.530Z,97751
2018-03-02T21:05:41.465Z,97743
2018-03-02T21:07:44.612Z,97745
2018-03-02T21:09:47.886Z,97739
2018-03-02T21:11:51.061Z,97738
2018-03-02T21:13:54.516Z,97738
2018-03-02T21:15:59.227Z,97748
2018-03-02T21:18:05.112Z,97743
2018-03-02T21:20:14.626Z,97747
2018-03-02T21:22:22.470Z,97740
2018-03-02T21:24:27.381Z,97736
2018-03-02T21:26:30.541Z,97740
2018-03-02T21:28:35.593Z,97742
2018-03-02T21:30:38.757Z,97745
2018-03-02T21:32:41.930Z,97746
2018-03-02T21:34:45.080Z,97741
2018-03-02T21:36:48.244Z,97743
2018-03-02T21:38:51.388Z,97741
2018-03-02T21:40:55.293Z,97759
2018-03-02T21:42:58.457Z,97753
2018-03-02T21:45:01.618Z,97755
2018-03-02T21:47:04.807Z,97754
2018-03-02T21:49:08.994Z,97750
2018-03-02T21:51:12.194Z,97746
2018-03-02T21:53:15.646Z,97756
2018-03-02T21:55:18.819Z,97759
2018-03-02T21:57:23.106Z,97752
2018-03-02T21:59:26.450Z,97754
2018-03-02T22:01:30.391Z,97759
2018-03-02T22:03:34.301Z,97752
2018-03-02T22:05:37.469Z,97753
2018-03-02T22:07:41.426Z,97753
2018-03-02T22:09:44.717Z,97751
2018-03-02T22:11:47.978Z,97747
2018-03-02T22:13:51.922Z,97752
2018-03-02T22:15:57.801Z,97745
2018-03-02T22:18:00.978Z,97742
2018-03-02T22:20:04.904Z,97737
2018-03-02T22:22:09.031Z,97752
2018-03-02T22:24:12.450Z,97735
2018-03-02T22:26:16.670Z,97741
2018-03-02T22:28:20.577Z,97748
2018-03-02T22:30:23.761Z,97742
2018-03-02T22:32:26.972Z,97738
2018-03-02T22:34:30.144Z,97739
2018-03-02T22:36:33.299Z,97751
2018-03-02T22:38:37.000Z,97743
2018-03-02T22:40:40.177Z,97745
2018-03-02T22:42:43.348Z,97749
2018-03-02T22:44:46.521Z,97735
2018-03-02T22:46:49.698Z,97742
2018-03-02T22:48:52.853Z,97733
2018-03-02T22:50:57.147Z,97743
2018-03-02T22:53:00.301Z,97739
2018-03-02T22:55:03.474Z,97749
2018-03-02T22:57:06.624Z,97750
2018-03-02T22:59:09.809Z,97741
2018-03-02T23:01:14.329Z,97744
2018-03-02T23:03:17.632Z,97748
2018-03-02T23:05:20.768Z,97756
2018-03-02T23:07:24.137Z,97750
2018-03-02T23:09:27.280Z,97748
2018-03-02T23:11:30.418Z,97749
2018-03-02T23:13:33.584Z,97749
2018-03-02T23:15:40.305Z,97752
2018-03-02T23:17:44.671Z,97751
2018-03-02T23:19:48.005Z,97748
2018-03-02T23:21:51.152Z,97745
2018-03-02T23:23:54.304Z,97736
2018-03-02T23:25:57.481Z,97743
2018-03-02T23:28:01.533Z,97744
2018-03-02T23:30:04.739Z,97743
2018-03-02T23:32:08.690Z,97742
2018-03-02T23:34:12.215Z,97740
2018-03-02T23:36:15.405Z,97743
2018-03-02T23:38:20.440Z,97736
2018-03-02T23:40:24.353Z,97727
2018-03-02T23:42:28.293Z,97720
2018-03-02T23:44:32.204Z,97712
2018-03-02T23:46:35.377Z,97718
2018-03-02T23:48:38.520Z,97726
2018-03-02T23:50:41.660Z,97722
2018-03-02T23:52:44.865Z,97713
2018-03-02T23:54:48.017Z,97724
2018-03-02T23:56:51.190Z,97708
2018-03-02T23:58:54.332Z,97712
